Cupertino, CA (95014)

1:16 AM PST on December 09, 2016 (GMT -0800)
Monta Vista North | | Change Station

Elev 340 ft 37.33 °N, 122.06 °W | Updated 2 seconds ago

Overcast
Overcast
55.6 °F
Feels Like 55.6 °F
N
0.0
Wind Variable Wind from North
Gusts 0.0 mph

Today
High -- | Low -- °F
--% Chance of Precip.
Yesterday
High -- | Low -- °F
Precip. -- in
Pressure 30.22 in
Visibility 10.0 miles
Clouds Scattered Clouds 3200 ft
Overcast 3900 ft
Dew Point 50 °F
Humidity 81%
Rainfall Not available.
Snow Depth Not available.
7:11 AM 4:50 PM
Waxing Gibbous, 72% visible
METAR KNUQ 090856Z 18004KT 10SM SCT032 OVC039 15/12 A3021 RMK AO2 SLP231 T01500122 50001
Pressure 30.22 in
Visibility 10.0 miles
Clouds Scattered Clouds 3200 ft
Overcast 3900 ft
Dew Point 50 °F
Humidity 81%
Rainfall Not available.
Snow Depth Not available.
7:11 AM 4:50 PM
Waxing Gibbous, 72% visible
METAR KNUQ 090856Z 18004KT 10SM SCT032 OVC039 15/12 A3021 RMK AO2 SLP231 T01500122 50001

10-Day Weather Forecast

Almanac

Astronomy

Dec. 09, 2016 Rise Set
Actual Time
Civil Twilight
Nautical Twilight
Astronomical Twilight
Moon
Length of Visible Light
Length of Day
Tomorrow will be .
, % of the Moon is Illuminated

Today's Extremes

State Highs State Lows

Community

WunderPhotos

Upload Photos

1,956,371 photos uploaded!

WunderBlog® & News

Nearby

Air Quality

  Air Quality AQ Index Pollutant
Not available.

Snow Depth

Station Depth Elevation

Earthquake Activity

City Distance Mag. Time & Date
Minimum magnitude displayed is 2.5.

Coastal Water Temperatures

Place Temperature

Stations

Nearby Weather Stations

Station Location Temp. Windchill Dew Point Humidity Wind Precip. Elev Updated Type
                   

Watches & Warnings

There are currently no watches in effect.